Portada
METAR-TAF:

METAR-TAF

Aeropuertos :

Maple Lake Municipal Airport

Maple Lake, Minnesota, Estados Unidos

latitud: 45-14-10N, longitud: 093-59-08W, altitud: 313 m

Observación

El informe se hizo hace 23 minutos, a las 00:16 UTC
Viento 14 kt del noroeste con ráfagas de 21 kt
Temperatura 21°C
Humedad 43%
Presión 1015 hPa
Visibilidad: 16.1 km

METAR: KMGG 290016Z AUTO 32014G21KT 10SM 21/08 A2997 RMK AO2 T02100078

Hora: 19:39 (00:39 UTC)


TAF: falta

Observaciones y pronósticos meteorológicos de más de 4000 aeropuertos (mensajes METAR y TAF).

Los puntos amarillos y rojos representan las estaciones disponibles.

Ponga el ratón en el punto deseado para ver el nombre de la estación.

Haga clic para ver las observaciones y los pronósticos meteorológicos.

Para cambiar el mapa : haga clic en los botones verdes con una cruz de color negro para hacer un zoom, en el botón verde con un guión para alejar o en las flechas verdes para mapas adyacentes.


METAR-TAF: